Sunshine, Maryland
Current Conditions -  °F | °C
As of 4:35 AM on Thursday 23 Oct 2014 (Local Time) from KGAI Reporting Station
Overcast Overcast  
Wind Chill: 50°   Ceiling: 3000
Heat Index: 50°   Visibility: 10mi
Dew Point: 41°   Wind: 10mph
Humidity: 71%   Direction: 310°NW
Pressure: 29.92"   Gusts: 21mph
Location:  39.2065°N, 77.0575°W
Report Text: KGAI 230835Z 31009G18KT 10SM OVC030 10/05 A2992 RMK AO1
Loading
Personal Weather Stations






























Interactive Weather Map
Tropical Storm Tracking
New forecast layout! Learn more

10-Day Weather Forecast

Advertisements
Track Severe Weather on mobile